createdAt,value
2023-02-14T05:25:51.616Z,96.10
2023-02-14T08:55:12.387Z,82.30
2023-02-14T09:00:07.462Z,90.90
2023-02-14T09:22:20.311Z,87.60
2023-02-14T09:29:42.058Z,89.80
2023-02-14T10:20:57.556Z,67.20
2023-02-14T10:34:22.645Z,56.60
2023-02-14T10:39:47.942Z,51.80
2023-02-14T10:42:17.722Z,65.80
2023-02-14T10:45:05.592Z,49.20
2023-02-14T10:47:45.075Z,60.90
2023-02-14T10:50:19.403Z,47.30
2023-02-14T10:53:01.293Z,47.10
2023-02-14T10:55:50.695Z,43.90
2023-02-14T10:58:20.809Z,45.60
2023-02-14T11:00:52.326Z,58.70
2023-02-14T11:05:48.326Z,44.10
2023-02-14T11:08:31.552Z,41.70
2023-02-14T11:11:24.240Z,39.10
2023-02-14T11:13:51.252Z,40.50
2023-02-14T11:16:37.456Z,37.60
2023-02-14T11:19:21.382Z,40.40
2023-02-14T11:21:50.706Z,54.40
2023-02-14T11:24:20.070Z,40.50
2023-02-14T11:26:49.998Z,38.60
2023-02-14T11:29:24.859Z,53.80
2023-02-14T11:34:31.481Z,50.10
2023-02-14T11:41:56.268Z,35.80
2023-02-14T11:44:26.315Z,37.10
2023-02-14T11:46:55.843Z,36.30
2023-02-14T11:49:35.082Z,35.90
2023-02-14T11:52:10.773Z,35.50
2023-02-14T11:54:40.426Z,35.40
2023-02-14T11:57:16.494Z,36.80
2023-02-14T11:59:47.373Z,35.70
2023-02-14T12:02:37.896Z,48.70
2023-02-14T12:05:26.672Z,35.30
2023-02-14T12:07:57.503Z,38.50
2023-02-14T12:10:26.356Z,35.20
2023-02-14T12:15:25.886Z,32.40
2023-02-14T12:18:18.223Z,49.70
2023-02-14T12:21:36.781Z,51.40
2023-02-14T12:24:20.509Z,37.40
2023-02-14T12:27:06.549Z,33.60
2023-02-14T12:29:44.977Z,31.60
2023-02-14T12:32:23.354Z,31.30
2023-02-14T12:34:51.716Z,47.40
2023-02-14T12:37:41.268Z,47.20
2023-02-14T12:40:17.052Z,49.20
2023-02-14T12:42:59.398Z,32.70
2023-02-14T12:45:29.171Z,30.00
2023-02-14T12:50:50.528Z,30.10
2023-02-14T12:53:38.284Z,36.60
2023-02-14T12:56:37.591Z,46.40
2023-02-14T12:59:40.781Z,29.90
2023-02-14T13:02:32.745Z,29.60
2023-02-14T13:05:20.208Z,30.90
2023-02-14T13:08:11.116Z,32.20
2023-02-14T13:13:27.505Z,49.50
2023-02-14T13:16:21.660Z,54.10
2023-02-14T13:19:29.849Z,39.60
2023-02-14T13:24:31.988Z,46.60
2023-02-14T13:27:03.414Z,48.20
2023-02-14T13:34:39.134Z,49.30
2023-02-14T13:42:07.229Z,53.40
2023-02-14T13:44:43.252Z,52.70
2023-02-14T13:47:18.327Z,55.00
2023-02-14T14:02:56.170Z,57.80
2023-02-14T14:19:19.235Z,60.10
2023-02-14T16:03:12.125Z,68.30
2023-02-14T16:05:38.917Z,75.00
2023-02-14T16:15:38.895Z,69.10
2023-02-14T16:23:16.921Z,70.70
